KGGG/GGG METAR and TAF weather

Enter ICAO airport designator
Station Type Date Time Source
KGGG METAR 2019/08/22 08:53 UTC NOAA

KGGG 220853Z AUTO 00000KT 10SM CLR 26/23 A2995 RMK AO2 SLP132 T02560233 53001


Station Type Date Time Source
KGGG Decoded METAR 2019/08/22 08:53 UTC NOAA

Station name not available
Aug 22, 2019 - 04:53 AM EDT / 2019.08.22 0853 UTC
Wind: Calm:0
Visibility: 10 mile(s):0
Sky conditions: clear
Temperature: 78.1 F (25.6 C)
Dew Point: 73.9 F (23.3 C)
Relative Humidity: 87%
Pressure (altimeter): 29.95 in. Hg (1014 hPa)
Pressure tendency: 0.00 inches (0.1 hPa) higher than three hours ago
ob: KGGG 220853Z AUTO 00000KT 10SM CLR 26/23 A2995 RMK AO2 SLP132 T02560233 53001
cycle: 9

Station Type Date Time Source
KGGG TAF 2019/08/22 06:42 UTC NOAA

TAF KGGG 220540Z 2206/2306 17005KT P6SM SKC
TEMPO 2213/2215 BKN030
FM221700 22007KT P6SM FEW050
FM230000 17005KT P6SM SKC

Example: see airport list